Time;durP1;ratioP1;P1;durP2;ratioP2;P2;SDS_P1;SDS_P2;PMS_P1;PMS_P2;Temp;Humidity;BMP_temperature;BMP_pressure;BME280_temperature;BME280_humidity;BME280_pressure;Samples;Min_cycle;Max_cycle;Signal;HPM_P1;HPM_P2
2023/05/12 00:04:07;;;;;;;11.90;4.20;;;;;;;12.04;53.52;100882.45;217790;1283;138245;-90
2023/05/12 00:09:08;;;;;;;10.20;4.20;;;;;;;11.96;53.68;100876.20;217291;1283;138769;-89
2023/05/12 00:14:08;;;;;;;11.10;3.80;;;;;;;11.86;54.00;100878.20;217870;1283;138158;-89
2023/05/12 00:19:09;;;;;;;9.10;3.80;;;;;;;11.78;54.09;100880.00;217488;1283;138916;-89
2023/05/12 00:24:09;;;;;;;11.30;4.40;;;;;;;11.70;54.54;100876.64;218108;1283;137927;-90
2023/05/12 00:29:09;;;;;;;13.90;4.30;;;;;;;11.60;54.70;100877.38;217471;1282;138216;-91
2023/05/12 00:34:10;;;;;;;9.90;4.60;;;;;;;11.53;55.00;100877.64;218043;1283;137675;-90
2023/05/12 00:39:10;;;;;;;9.80;4.20;;;;;;;11.46;54.98;100872.58;217348;1283;138763;-88
2023/05/12 00:44:11;;;;;;;10.10;3.90;;;;;;;11.41;55.14;100876.36;217828;1283;138279;-90
2023/05/12 00:49:11;;;;;;;11.10;4.70;;;;;;;11.34;55.44;100871.61;217377;1286;138922;-90
2023/05/12 00:54:12;;;;;;;12.00;5.00;;;;;;;11.27;55.69;100878.42;218075;1282;138067;-90
2023/05/12 00:59:12;;;;;;;11.60;4.40;;;;;;;11.19;55.84;100876.73;217659;1282;138448;-89
2023/05/12 01:04:13;;;;;;;10.10;3.70;;;;;;;11.15;55.78;100880.83;217913;1283;138453;-92
2023/05/12 01:09:14;;;;;;;12.90;4.50;;;;;;;11.09;56.28;100885.77;217624;1282;139244;-91
2023/05/12 01:14:15;;;;;;;7.20;3.80;;;;;;;11.04;56.47;100885.62;217900;1285;138101;-90
2023/05/12 01:19:32;;;;;;;11.80;4.60;;;;;;;10.98;56.74;100886.06;217523;1282;138020;-90
2023/05/12 01:24:39;;;;;;;11.10;4.20;;;;;;;10.91;56.96;100884.68;217790;1286;138164;-91
2023/05/12 01:29:41;;;;;;;10.10;4.40;;;;;;;10.84;56.93;100888.82;217366;1287;138560;-90
2023/05/12 01:34:42;;;;;;;9.40;5.40;;;;;;;10.77;56.97;100889.80;217882;1282;96495;-91
2023/05/12 01:39:43;;;;;;;12.50;4.10;;;;;;;10.72;56.95;100888.52;217553;1286;137465;-90
2023/05/12 01:44:43;;;;;;;11.10;4.50;;;;;;;10.65;57.58;100892.50;217889;1283;137982;-90
2023/05/12 01:49:44;;;;;;;8.70;4.60;;;;;;;10.58;57.80;100886.70;217602;1282;138890;-89
2023/05/12 01:54:45;;;;;;;11.30;4.70;;;;;;;10.53;57.77;100897.61;217937;1286;137816;-90
2023/05/12 01:59:45;;;;;;;11.70;5.00;;;;;;;10.48;57.98;100902.63;217470;1283;138522;-91
2023/05/12 02:04:46;;;;;;;11.70;4.60;;;;;;;10.41;58.30;100902.97;217863;1282;96619;-90
2023/05/12 02:09:47;;;;;;;10.90;4.80;;;;;;;10.35;58.52;100907.96;217573;1283;137934;-89
2023/05/12 02:14:47;;;;;;;9.70;4.40;;;;;;;10.28;59.14;100907.27;217866;1282;138176;-90
2023/05/12 02:19:48;;;;;;;9.90;5.00;;;;;;;10.21;59.18;100912.02;217436;1283;138258;-92
2023/05/12 02:24:49;;;;;;;9.90;4.70;;;;;;;10.15;59.63;100910.94;217815;1283;138138;-88
2023/05/12 02:29:50;;;;;;;13.20;5.10;;;;;;;10.08;59.71;100915.13;217440;1286;138227;-89
2023/05/12 02:34:50;;;;;;;12.50;5.10;;;;;;;10.03;59.79;100920.02;218061;1283;96641;-90
2023/05/12 02:39:50;;;;;;;13.00;5.10;;;;;;;9.96;60.28;100924.73;217156;1282;238478;-90
2023/05/12 02:44:51;;;;;;;13.50;5.80;;;;;;;9.89;60.11;100931.95;217848;1283;137557;-90
2023/05/12 02:49:51;;;;;;;11.30;5.40;;;;;;;9.82;60.64;100934.00;217407;1283;138197;-90
2023/05/12 02:54:52;;;;;;;9.70;4.90;;;;;;;9.76;60.70;100927.77;218046;1282;137754;-90
2023/05/12 02:59:52;;;;;;;13.60;5.90;;;;;;;9.73;60.94;100930.04;217442;1283;137726;-92
2023/05/12 03:04:53;;;;;;;10.30;4.90;;;;;;;9.69;61.13;100926.89;217854;1283;96565;-92
2023/05/12 03:09:53;;;;;;;12.40;5.40;;;;;;;9.65;61.18;100929.00;217288;1283;137958;-92
2023/05/12 03:14:54;;;;;;;12.20;5.60;;;;;;;9.59;61.24;100928.78;217961;1286;137523;-91
2023/05/12 03:25:14;;;;;;;17.20;6.30;;;;;;;9.50;61.93;100932.52;217962;1282;137894;-89
2023/05/12 03:30:15;;;;;;;10.80;5.20;;;;;;;9.48;62.18;100931.89;217257;1286;140578;-87
2023/05/12 03:35:15;;;;;;;11.20;5.80;;;;;;;9.48;62.20;100938.80;218132;1282;97140;-89
2023/05/12 03:40:17;;;;;;;14.90;5.60;;;;;;;9.49;62.28;100940.77;217509;1283;138393;-90
2023/05/12 03:45:18;;;;;;;9.70;5.00;;;;;;;9.50;62.52;100938.79;217856;1282;138061;-90
2023/05/12 03:50:18;;;;;;;12.60;4.80;;;;;;;9.52;62.29;100941.90;217479;1283;137733;-90
2023/05/12 03:55:18;;;;;;;10.70;5.40;;;;;;;9.53;62.55;100944.80;218129;1282;138698;-89
2023/05/12 04:00:19;;;;;;;11.90;5.30;;;;;;;9.55;62.52;100950.03;217215;1282;137953;-89
2023/05/12 04:05:19;;;;;;;10.20;5.30;;;;;;;9.62;62.61;100948.80;217931;1283;96607;-89
2023/05/12 04:10:20;;;;;;;11.60;5.30;;;;;;;9.70;62.53;100952.83;217497;1283;138200;-89
2023/05/12 04:15:20;;;;;;;13.00;4.90;;;;;;;9.77;62.37;100959.50;217882;1282;137549;-90
2023/05/12 04:20:21;;;;;;;10.30;4.40;;;;;;;9.84;62.58;100959.89;217334;1282;137806;-90
2023/05/12 04:25:21;;;;;;;11.80;5.60;;;;;;;9.88;62.90;100963.11;218059;1282;137669;-88
2023/05/12 04:30:21;;;;;;;14.30;5.50;;;;;;;9.93;62.94;100966.60;217351;1282;138638;-90
2023/05/12 04:35:22;;;;;;;10.90;5.70;;;;;;;9.99;62.99;100971.53;217774;1282;137868;-88
2023/05/12 04:40:23;;;;;;;13.60;5.70;;;;;;;10.06;62.90;100971.16;217444;1282;138016;-90
2023/05/12 04:45:23;;;;;;;12.60;5.80;;;;;;;10.13;62.90;100977.94;217842;1283;138437;-88
2023/05/12 04:50:23;;;;;;;13.40;6.00;;;;;;;10.19;62.94;100975.70;217523;1282;138534;-88
2023/05/12 04:55:24;;;;;;;12.70;5.50;;;;;;;10.24;62.86;100983.52;217983;1283;138085;-91
2023/05/12 05:00:24;;;;;;;10.30;5.00;;;;;;;10.31;63.12;100988.52;217250;1284;138002;-92
2023/05/12 05:05:24;;;;;;;12.00;5.40;;;;;;;10.39;63.13;100992.08;218036;1286;137960;-88
2023/05/12 05:10:25;;;;;;;14.10;6.20;;;;;;;10.51;62.89;100994.46;217596;1282;138323;-89
2023/05/12 05:15:25;;;;;;;13.70;5.90;;;;;;;10.66;62.91;100992.40;218041;1282;137831;-89
2023/05/12 05:20:27;;;;;;;11.10;5.50;;;;;;;10.82;62.68;100990.26;217333;1282;137990;-88
2023/05/12 05:25:28;;;;;;;13.30;6.30;;;;;;;11.03;63.20;100990.12;218001;1282;138031;-90
2023/05/12 05:30:29;;;;;;;10.30;4.90;;;;;;;11.40;62.76;100990.92;217367;1286;138208;-91
2023/05/12 05:35:30;;;;;;;15.10;5.20;;;;;;;11.92;62.32;100989.95;217861;1283;138058;-88
2023/05/12 05:40:30;;;;;;;9.60;4.80;;;;;;;12.56;61.58;100992.30;217469;1282;137856;-91
2023/05/12 05:45:32;;;;;;;12.70;5.50;;;;;;;13.23;60.09;100995.81;217844;1282;137751;-89
2023/05/12 05:50:33;;;;;;;10.70;5.00;;;;;;;13.81;58.81;100996.59;217563;1282;138068;-90
2023/05/12 05:55:33;;;;;;;11.40;5.50;;;;;;;14.44;57.08;101004.03;217980;1286;138050;-89
2023/05/12 06:00:34;;;;;;;13.00;5.50;;;;;;;15.06;55.90;101006.71;217517;1282;138101;-92
2023/05/12 06:05:34;;;;;;;13.10;5.40;;;;;;;15.50;54.79;101009.23;218010;1282;138039;-89
2023/05/12 06:10:35;;;;;;;13.80;5.90;;;;;;;16.04;53.34;101013.10;217673;1282;137921;-91
2023/05/12 06:15:38;;;;;;;13.30;5.40;;;;;;;16.48;52.62;101017.67;217802;1282;137922;-90
2023/05/12 06:20:39;;;;;;;16.20;5.70;;;;;;;16.88;51.30;101019.10;217496;1286;138114;-89
2023/05/12 06:25:40;;;;;;;12.60;4.70;;;;;;;17.21;50.56;101021.86;218075;1282;138703;-90
2023/05/12 06:30:41;;;;;;;11.20;5.30;;;;;;;17.60;49.17;101022.30;217357;1282;137948;-91
2023/05/12 06:35:43;;;;;;;13.60;5.20;;;;;;;18.00;49.33;101025.70;217666;1282;137990;-89
2023/05/12 06:40:43;;;;;;;15.40;5.10;;;;;;;18.51;48.46;101030.02;217597;1282;137653;-93
2023/05/12 06:45:44;;;;;;;12.60;4.60;;;;;;;18.85;46.94;101037.27;217771;1282;138217;-91
2023/05/12 06:50:45;;;;;;;13.00;4.20;;;;;;;19.03;46.30;101035.42;217340;1286;138333;-91
2023/05/12 06:55:45;;;;;;;11.10;4.50;;;;;;;18.99;45.35;101029.73;217683;1282;138041;-91
2023/05/12 07:00:46;;;;;;;16.60;5.40;;;;;;;18.99;45.06;101028.14;217520;1282;138465;-89
2023/05/12 07:05:47;;;;;;;8.00;4.10;;;;;;;19.11;45.42;101028.13;218057;1282;138623;-90
2023/05/12 07:10:47;;;;;;;9.20;3.90;;;;;;;19.23;45.62;101027.83;217669;1282;138808;-91
2023/05/12 07:15:48;;;;;;;14.30;4.50;;;;;;;19.24;45.02;101025.34;218068;1282;137767;-89
2023/05/12 07:20:48;;;;;;;12.50;4.10;;;;;;;19.18;45.17;101024.69;217344;1286;138191;-90
2023/05/12 07:25:49;;;;;;;10.70;4.00;;;;;;;19.06;44.36;101022.86;218029;1286;138091;-89
2023/05/12 07:30:49;;;;;;;12.00;3.70;;;;;;;18.94;44.18;101025.35;217532;1282;137951;-90
2023/05/12 07:35:50;;;;;;;10.50;3.80;;;;;;;18.94;43.90;101025.42;217906;1283;138018;-90
2023/05/12 07:40:51;;;;;;;8.50;3.60;;;;;;;18.90;43.53;101024.93;217528;1282;138871;-91
2023/05/12 07:45:51;;;;;;;12.50;3.70;;;;;;;18.82;43.51;101025.27;218062;1282;137666;-90
2023/05/12 07:50:52;;;;;;;9.00;3.40;;;;;;;18.88;43.31;101020.09;217293;1282;138540;-90
2023/05/12 07:55:53;;;;;;;12.00;3.40;;;;;;;18.97;43.34;101016.15;217649;1282;137004;-91
2023/05/12 08:00:53;;;;;;;11.00;3.30;;;;;;;19.10;43.48;101015.23;217232;1286;138642;-89
2023/05/12 08:05:54;;;;;;;8.80;3.50;;;;;;;19.36;41.78;101019.52;217941;1286;138293;-90
2023/05/12 08:10:57;;;;;;;9.40;3.20;;;;;;;19.61;41.14;101013.11;217762;1286;137546;-90
2023/05/12 08:15:57;;;;;;;10.40;3.70;;;;;;;19.97;41.25;101013.95;217817;1282;138023;-91
2023/05/12 08:20:59;;;;;;;8.90;3.20;;;;;;;20.54;40.61;101014.54;217392;1282;138632;-89
2023/05/12 08:25:59;;;;;;;9.80;3.30;;;;;;;20.96;39.26;101017.57;217916;1282;138010;-92
2023/05/12 08:31:01;;;;;;;7.20;3.20;;;;;;;21.45;38.26;101010.38;217347;1282;138016;-91
2023/05/12 08:36:01;;;;;;;8.30;2.90;;;;;;;21.70;36.30;101011.92;217893;1282;138037;-92
2023/05/12 08:41:14;;;;;;;7.90;3.10;;;;;;;22.04;36.66;101011.77;217411;1282;137460;-92
2023/05/12 08:46:15;;;;;;;9.00;3.10;;;;;;;22.71;36.30;101014.98;217721;1282;138090;-91
2023/05/12 08:51:18;;;;;;;14.60;3.00;;;;;;;23.35;34.66;101021.77;217379;1282;137845;-89
2023/05/12 08:56:21;;;;;;;7.80;2.50;;;;;;;23.78;34.15;101018.57;217923;1282;138549;-91
2023/05/12 09:01:24;;;;;;;8.10;3.20;;;;;;;24.16;32.48;101018.87;217344;1286;138422;-91
2023/05/12 09:06:24;;;;;;;5.30;2.50;;;;;;;24.49;32.48;101016.44;217913;1282;137907;-92
2023/05/12 09:11:25;;;;;;;18.60;3.50;;;;;;;25.07;31.76;101017.67;217349;1282;137823;-93
2023/05/12 09:16:30;;;;;;;7.60;2.90;;;;;;;25.60;31.62;101018.00;218076;1282;96520;-91
2023/05/12 09:21:31;;;;;;;7.30;3.00;;;;;;;25.56;30.25;101025.71;217555;1282;137966;-94
2023/05/12 09:26:53;;;;;;;7.30;2.70;;;;;;;25.60;29.40;101021.03;218079;1282;138234;-92
2023/05/12 09:31:59;;;;;;;9.80;3.20;;;;;;;25.99;29.59;101021.83;217177;1282;138421;-90
2023/05/12 09:37:05;;;;;;;7.70;2.90;;;;;;;26.12;28.98;101021.46;217952;1282;138056;-92
2023/05/12 09:42:11;;;;;;;7.20;2.80;;;;;;;26.41;28.90;101020.95;217573;1283;138543;-90
2023/05/12 09:47:14;;;;;;;9.10;3.00;;;;;;;26.66;28.60;101015.46;217921;1283;107310;-90
2023/05/12 09:52:24;;;;;;;12.80;3.20;;;;;;;26.57;27.65;101014.02;217346;1282;138250;-93
2023/05/12 09:57:25;;;;;;;6.70;3.00;;;;;;;26.29;27.92;101016.40;217783;1282;137849;-91
2023/05/12 10:02:27;;;;;;;6.70;2.50;;;;;;;26.24;27.33;101018.48;217321;1282;138151;-93
2023/05/12 10:07:28;;;;;;;6.80;2.60;;;;;;;26.36;28.14;101010.81;217813;1282;137810;-90
2023/05/12 10:12:30;;;;;;;8.40;2.70;;;;;;;26.92;27.13;101012.56;217398;1282;137999;-90
2023/05/12 10:17:31;;;;;;;9.00;2.60;;;;;;;26.88;26.05;101017.65;217698;1282;138493;-90
2023/05/12 10:22:38;;;;;;;6.80;3.00;;;;;;;26.56;26.27;101007.05;217562;1282;139117;-89
2023/05/12 10:27:39;;;;;;;6.00;2.40;;;;;;;26.80;27.04;101001.66;217935;1285;137811;-92
2023/05/12 10:32:40;;;;;;;6.00;2.80;;;;;;;27.07;26.32;101004.98;217340;1282;138559;-89
2023/05/12 10:37:41;;;;;;;5.20;2.60;;;;;;;27.15;26.72;101003.50;217984;1282;138562;-93
2023/05/12 10:42:42;;;;;;;6.70;2.90;;;;;;;27.37;26.83;101002.91;217544;1282;137808;-91
2023/05/12 10:47:43;;;;;;;9.20;2.60;;;;;;;27.76;26.40;100994.16;217854;1283;136804;-92
2023/05/12 10:52:53;;;;;;;5.90;2.50;;;;;;;27.58;25.62;101005.80;217462;1282;138300;-91
2023/05/12 10:58:02;;;;;;;8.30;2.50;;;;;;;27.64;25.62;100992.98;217816;1282;137687;-94
2023/05/12 11:03:22;;;;;;;6.90;3.70;;;;;;;27.51;25.87;100992.85;217470;1282;137629;-91
2023/05/12 11:08:23;;;;;;;10.70;3.30;;;;;;;27.59;26.52;100988.04;217922;1282;138079;-92
2023/05/12 11:13:24;;;;;;;7.60;2.50;;;;;;;27.32;25.69;100991.83;217531;1282;138482;-93
2023/05/12 11:18:24;;;;;;;7.30;3.00;;;;;;;26.75;26.45;100988.80;217852;1282;138066;-91
2023/05/12 11:23:29;;;;;;;7.90;2.60;;;;;;;26.61;26.50;100987.94;217526;1282;138106;-89
2023/05/12 11:28:39;;;;;;;5.70;2.70;;;;;;;26.33;26.62;100985.98;218077;1282;96615;-93
2023/05/12 11:33:40;;;;;;;10.30;3.80;;;;;;;26.40;26.88;100980.13;217458;1282;138736;-87
2023/05/12 11:38:49;;;;;;;9.30;2.70;;;;;;;26.46;28.42;100971.77;218056;1282;138070;-90
2023/05/12 11:43:49;;;;;;;7.30;2.70;;;;;;;26.72;26.91;100985.73;217339;1282;137823;-94
2023/05/12 11:48:56;;;;;;;7.90;2.90;;;;;;;26.12;27.26;100983.03;217878;1282;138940;-91
2023/05/12 11:53:57;;;;;;;7.30;2.90;;;;;;;26.40;28.09;100975.50;217440;1282;138062;-90
2023/05/12 11:58:58;;;;;;;7.80;2.60;;;;;;;26.61;27.01;100975.68;217720;1282;138801;-91
2023/05/12 12:03:58;;;;;;;6.90;2.40;;;;;;;26.51;27.19;100977.24;218111;1282;137730;-92
2023/05/12 12:08:59;;;;;;;7.70;3.00;;;;;;;26.49;27.21;100967.67;217558;1282;137735;-91
2023/05/12 12:14:00;;;;;;;16.00;2.50;;;;;;;26.48;27.26;100975.56;218116;1282;138004;-93
2023/05/12 12:19:00;;;;;;;11.00;3.10;;;;;;;26.09;27.04;100979.97;217619;1282;138021;-94
2023/05/12 12:24:01;;;;;;;9.20;2.80;;;;;;;26.14;27.49;100974.41;217641;1282;137985;-91
2023/05/12 12:29:02;;;;;;;9.20;2.70;;;;;;;26.12;27.07;100972.64;217436;1287;138193;-91
2023/05/12 12:34:06;;;;;;;6.50;2.90;;;;;;;26.07;27.28;100970.44;217966;1282;138879;-92
2023/05/12 12:39:07;;;;;;;8.20;2.70;;;;;;;26.03;27.33;100970.94;217555;1287;138386;-90
2023/05/12 12:44:08;;;;;;;11.80;2.30;;;;;;;26.30;27.17;100967.39;218082;1282;137882;-94
2023/05/12 12:49:08;;;;;;;6.40;2.60;;;;;;;26.43;27.43;100964.55;217410;1282;140551;-92
2023/05/12 12:54:09;;;;;;;8.80;2.80;;;;;;;26.65;27.50;100966.47;217847;1282;138474;-86
2023/05/12 12:59:10;;;;;;;8.50;2.80;;;;;;;26.65;27.06;100966.38;217715;1282;137563;-89
2023/05/12 13:04:11;;;;;;;7.70;3.10;;;;;;;26.49;27.57;100960.16;218106;1287;137831;-88
2023/05/12 13:09:11;;;;;;;10.20;2.70;;;;;;;26.33;27.33;100962.19;217611;1282;138178;-88
2023/05/12 13:14:11;;;;;;;9.30;2.70;;;;;;;26.08;27.30;100960.73;218016;1282;138309;-91
2023/05/12 13:19:12;;;;;;;10.60;2.80;;;;;;;25.72;28.00;100952.29;217620;1282;138647;-93
2023/05/12 13:24:12;;;;;;;6.90;2.50;;;;;;;25.73;28.33;100947.19;217907;1282;138769;-90
2023/05/12 13:29:13;;;;;;;9.20;3.20;;;;;;;25.41;27.33;100942.48;217711;1283;138034;-91
2023/05/12 13:34:13;;;;;;;10.30;2.40;;;;;;;25.08;28.16;100945.70;218153;1283;139386;-89
2023/05/12 13:39:14;;;;;;;8.20;2.50;;;;;;;25.07;28.06;100938.34;217548;1282;139398;-92
2023/05/12 13:44:14;;;;;;;8.40;2.60;;;;;;;25.03;28.97;100934.23;218112;1286;139791;-89
2023/05/12 13:49:14;;;;;;;9.90;2.50;;;;;;;25.23;29.10;100932.52;217636;1282;139238;-91
2023/05/12 13:54:15;;;;;;;5.50;2.80;;;;;;;25.34;29.20;100940.69;218133;1283;138033;-86
2023/05/12 13:59:15;;;;;;;5.00;2.60;;;;;;;25.27;28.66;100939.05;217647;1287;138574;-88
2023/05/12 14:04:16;;;;;;;6.40;2.40;;;;;;;25.34;28.71;100931.69;218016;1287;137987;-91
2023/05/12 14:09:16;;;;;;;7.60;2.80;;;;;;;25.38;28.64;100931.30;217510;1283;138589;-88
2023/05/12 14:14:17;;;;;;;7.10;2.60;;;;;;;25.27;29.05;100930.86;218094;1282;138526;-93
2023/05/12 14:19:17;;;;;;;8.10;4.00;;;;;;;25.22;28.94;100935.05;217512;1287;138435;-90
2023/05/12 14:24:17;;;;;;;8.20;3.30;;;;;;;25.03;28.44;100940.67;217954;1283;138640;-87
2023/05/12 14:29:18;;;;;;;8.50;2.70;;;;;;;24.72;28.67;100934.90;217542;1283;138846;-89
2023/05/12 14:34:18;;;;;;;8.50;3.10;;;;;;;24.44;28.65;100934.85;218016;1282;138105;-91
2023/05/12 14:39:18;;;;;;;9.70;2.80;;;;;;;24.08;28.94;100932.14;217412;1283;205712;-93
2023/05/12 14:44:19;;;;;;;10.40;2.80;;;;;;;24.12;30.41;100926.31;218046;1287;138122;-88
2023/05/12 14:49:20;;;;;;;5.50;2.50;;;;;;;24.16;30.40;100933.80;217536;1282;139489;-91
2023/05/12 14:54:21;;;;;;;13.60;3.20;;;;;;;23.92;30.05;100933.77;218028;1287;138985;-88
2023/05/12 14:59:21;;;;;;;9.10;2.90;;;;;;;23.70;31.75;100931.96;217606;1286;138357;-89
2023/05/12 15:04:22;;;;;;;9.90;2.70;;;;;;;23.60;31.03;100932.31;218067;1282;137668;-90
2023/05/12 15:09:23;;;;;;;9.60;2.90;;;;;;;23.61;30.90;100933.63;217569;1283;138986;-85
2023/05/12 15:14:23;;;;;;;5.70;2.70;;;;;;;23.31;30.93;100937.06;218041;1284;137835;-85
2023/05/12 15:19:24;;;;;;;7.20;2.70;;;;;;;23.26;31.14;100935.94;217641;1283;138792;-88
2023/05/12 15:24:24;;;;;;;7.50;2.70;;;;;;;23.21;31.94;100934.66;218082;1287;137871;-85
2023/05/12 15:29:25;;;;;;;6.60;2.90;;;;;;;23.04;31.73;100938.15;217571;1282;138345;-87
2023/05/12 15:34:26;;;;;;;8.40;3.00;;;;;;;22.82;31.89;100937.33;218194;1287;96477;-91
2023/05/12 15:39:26;;;;;;;11.10;2.90;;;;;;;22.65;32.15;100946.05;217637;1283;139675;-90
2023/05/12 15:44:27;;;;;;;6.60;2.70;;;;;;;22.48;32.06;100942.20;218124;1283;138247;-91
2023/05/12 15:49:27;;;;;;;7.00;2.70;;;;;;;22.29;31.68;100942.42;217628;1283;138323;-87
2023/05/12 15:54:29;;;;;;;9.40;2.50;;;;;;;22.10;32.01;100942.00;217896;1287;138234;-92
2023/05/12 15:59:29;;;;;;;9.70;2.90;;;;;;;22.00;33.11;100941.73;217628;1283;161189;-92
2023/05/12 16:04:30;;;;;;;11.90;3.60;;;;;;;21.85;32.29;100940.13;218205;1282;96552;-89
2023/05/12 16:09:30;;;;;;;10.80;3.30;;;;;;;21.57;32.27;100935.23;217443;1283;139177;-92
2023/05/12 16:14:30;;;;;;;8.00;2.80;;;;;;;21.31;32.62;100937.74;218097;1282;139377;-91
2023/05/12 16:19:31;;;;;;;7.70;3.00;;;;;;;21.14;32.59;100938.01;217566;1282;139389;-89
2023/05/12 16:24:32;;;;;;;8.40;2.80;;;;;;;21.02;32.94;100937.27;218064;1282;137775;-87
2023/05/12 16:29:32;;;;;;;7.10;2.40;;;;;;;20.88;32.74;100939.95;217548;1283;138197;-83
2023/05/12 16:34:32;;;;;;;8.00;2.70;;;;;;;20.73;33.22;100936.14;218185;1282;96616;-91
2023/05/12 16:39:34;;;;;;;7.30;2.90;;;;;;;20.60;33.15;100942.18;217440;1287;137982;-86
2023/05/12 16:44:35;;;;;;;8.60;2.70;;;;;;;20.49;33.75;100944.08;218027;1287;137870;-88
2023/05/12 16:49:35;;;;;;;10.60;3.40;;;;;;;20.33;33.52;100942.50;217585;1287;139605;-91
2023/05/12 16:54:37;;;;;;;8.90;3.00;;;;;;;20.20;33.94;100945.73;218048;1283;139409;-92
2023/05/12 16:59:38;;;;;;;9.60;2.90;;;;;;;20.09;34.37;100948.26;217334;1283;138069;-91
2023/05/12 17:04:38;;;;;;;9.40;3.10;;;;;;;19.97;34.57;100949.17;217957;1283;96603;-90
2023/05/12 17:09:39;;;;;;;12.50;3.00;;;;;;;19.86;34.57;100953.70;217559;1283;138152;-88
2023/05/12 17:14:40;;;;;;;10.00;3.50;;;;;;;19.74;34.61;100953.85;217995;1286;138197;-92
2023/05/12 17:19:40;;;;;;;10.60;3.00;;;;;;;19.61;34.67;100958.39;217357;1283;138572;-91
2023/05/12 17:24:41;;;;;;;8.40;3.20;;;;;;;19.50;35.02;100960.35;217897;1283;138083;-90
2023/05/12 17:29:42;;;;;;;8.10;3.10;;;;;;;19.36;35.12;100960.25;217602;1282;140234;-89
2023/05/12 17:34:42;;;;;;;6.90;2.90;;;;;;;19.22;35.14;100968.20;218038;1287;97186;-89
2023/05/12 17:39:43;;;;;;;4.30;2.30;;;;;;;19.09;35.33;100972.36;217550;1288;137524;-88
2023/05/12 17:44:44;;;;;;;13.60;3.60;;;;;;;18.96;35.44;100980.83;218099;1283;137819;-86
2023/05/12 17:49:44;;;;;;;9.30;2.80;;;;;;;18.84;35.34;100992.24;217496;1287;138446;-88
2023/05/12 17:54:45;;;;;;;5.60;2.60;;;;;;;18.71;35.44;100999.67;217770;1283;137827;-89
2023/05/12 17:59:45;;;;;;;7.50;3.10;;;;;;;18.59;35.61;101001.98;217509;1288;137869;-92
2023/05/12 18:04:45;;;;;;;7.20;2.80;;;;;;;18.47;35.58;101006.35;218125;1288;96594;-92
2023/05/12 18:09:46;;;;;;;13.40;2.80;;;;;;;18.34;36.09;101011.81;217566;1288;139135;-90
2023/05/12 18:14:47;;;;;;;9.20;2.80;;;;;;;18.21;36.02;101014.09;218083;1287;139516;-90
2023/05/12 18:19:47;;;;;;;8.10;3.20;;;;;;;18.08;36.19;101019.41;217444;1287;138637;-88
2023/05/12 18:24:49;;;;;;;5.50;2.80;;;;;;;17.95;36.46;101021.92;217725;1288;138156;-89
2023/05/12 18:29:50;;;;;;;7.20;3.00;;;;;;;17.83;36.62;101022.98;217277;1287;138834;-89
2023/05/12 18:34:50;;;;;;;6.10;3.30;;;;;;;17.69;36.92;101027.09;218023;1283;96575;-88
2023/05/12 18:39:53;;;;;;;10.10;3.20;;;;;;;17.56;37.15;101034.44;217518;1283;139262;-90
2023/05/12 18:44:53;;;;;;;7.90;2.90;;;;;;;17.40;37.33;101040.02;218022;1283;137825;-90
2023/05/12 18:49:54;;;;;;;9.10;3.40;;;;;;;17.26;37.65;101049.25;217462;1283;138573;-92
2023/05/12 18:54:54;;;;;;;7.70;3.30;;;;;;;17.09;37.84;101049.73;218052;1283;138278;-88
2023/05/12 18:59:56;;;;;;;8.00;3.40;;;;;;;16.95;37.89;101055.86;217462;1283;138873;-88
2023/05/12 19:04:56;;;;;;;6.50;3.20;;;;;;;16.82;38.15;101063.06;217938;1286;96529;-89
2023/05/12 19:09:57;;;;;;;10.00;3.20;;;;;;;16.68;38.28;101063.20;217263;1283;137823;-89
2023/05/12 19:14:57;;;;;;;9.60;3.40;;;;;;;16.56;38.49;101065.30;218034;1286;139288;-89
2023/05/12 19:19:58;;;;;;;9.40;3.20;;;;;;;16.43;38.62;101069.53;217485;1286;138272;-89
2023/05/12 19:24:59;;;;;;;11.20;3.30;;;;;;;16.33;38.57;101071.52;218021;1286;137869;-87
2023/05/12 19:30:04;;;;;;;11.00;3.10;;;;;;;16.23;38.95;101075.91;217389;1286;138590;-90
2023/05/12 19:35:05;;;;;;;8.90;3.10;;;;;;;16.11;39.17;101083.45;218049;1286;96919;-92
2023/05/12 19:40:07;;;;;;;10.20;3.30;;;;;;;15.99;39.36;101087.36;217533;1283;137778;-89
2023/05/12 19:45:08;;;;;;;9.80;4.10;;;;;;;15.89;39.59;101089.66;217960;1283;138533;-91
2023/05/12 19:50:09;;;;;;;8.00;3.20;;;;;;;15.77;39.65;101089.33;217558;1284;141215;-90
2023/05/12 19:55:10;;;;;;;9.70;3.80;;;;;;;15.66;39.77;101090.45;217809;1286;137951;-88
2023/05/12 20:00:11;;;;;;;10.70;3.90;;;;;;;15.56;40.08;101097.32;217529;1283;138286;-90
2023/05/12 20:05:12;;;;;;;9.50;4.00;;;;;;;15.43;40.61;101102.45;218147;1283;96591;-93
2023/05/12 20:10:12;;;;;;;14.90;4.30;;;;;;;15.30;40.74;101100.34;217356;1283;137417;-91
2023/05/12 20:15:13;;;;;;;10.90;4.30;;;;;;;15.19;40.88;101106.23;217806;1283;139726;-88
2023/05/12 20:20:14;;;;;;;7.20;3.10;;;;;;;15.09;41.03;101105.89;217230;1283;138199;-93
2023/05/12 20:25:16;;;;;;;9.30;4.20;;;;;;;14.99;41.15;101110.20;217646;1286;139573;-89
2023/05/12 20:30:17;;;;;;;7.70;3.30;;;;;;;14.88;41.34;101114.20;217528;1283;139167;-89
2023/05/12 20:35:17;;;;;;;11.70;4.10;;;;;;;14.78;41.43;101112.26;218167;1285;96626;-88
2023/05/12 20:40:18;;;;;;;7.80;3.80;;;;;;;14.70;41.65;101115.86;217564;1283;138218;-91
2023/05/12 20:45:19;;;;;;;7.90;3.80;;;;;;;14.62;41.78;101119.05;218053;1283;137649;-89
2023/05/12 20:50:22;;;;;;;12.80;4.50;;;;;;;14.53;42.04;101119.16;217365;1283;138066;-91
2023/05/12 20:55:24;;;;;;;10.20;3.70;;;;;;;14.43;42.31;101120.14;217926;1283;138925;-88
2023/05/12 21:00:25;;;;;;;9.60;3.90;;;;;;;14.35;42.54;101124.98;217458;1286;139240;-87
2023/05/12 21:05:25;;;;;;;8.70;4.20;;;;;;;14.25;42.75;101132.98;218120;1283;96613;-87
2023/05/12 21:10:26;;;;;;;9.10;4.30;;;;;;;14.17;43.03;101135.96;217645;1286;138757;-88
2023/05/12 21:15:26;;;;;;;11.90;4.00;;;;;;;14.08;43.09;101142.08;218031;1282;138263;-90
2023/05/12 21:20:26;;;;;;;7.80;4.10;;;;;;;13.99;43.33;101139.38;217520;1283;138509;-88
2023/05/12 21:25:27;;;;;;;8.90;4.00;;;;;;;13.90;43.65;101140.73;218072;1282;137827;-89
2023/05/12 21:30:28;;;;;;;12.00;4.90;;;;;;;13.80;43.92;101143.15;217336;1283;138332;-87
2023/05/12 21:35:28;;;;;;;10.70;3.80;;;;;;;13.70;44.09;101144.80;218080;1283;138730;-86
2023/05/12 21:40:29;;;;;;;13.60;4.40;;;;;;;13.60;44.25;101147.79;217658;1282;138428;-89
2023/05/12 21:45:29;;;;;;;11.30;4.20;;;;;;;13.50;44.60;101145.95;217953;1282;138601;-87
2023/05/12 21:50:29;;;;;;;10.50;4.20;;;;;;;13.40;44.88;101152.00;217546;1282;139299;-88
2023/05/12 21:55:30;;;;;;;8.50;3.90;;;;;;;13.31;45.30;101150.55;217789;1282;139183;-89
2023/05/12 22:00:30;;;;;;;9.80;4.30;;;;;;;13.20;45.45;101149.00;217532;1283;137869;-89
2023/05/12 22:05:31;;;;;;;11.70;3.70;;;;;;;13.14;45.63;101152.80;218093;1286;137892;-88
2023/05/12 22:10:31;;;;;;;9.40;3.80;;;;;;;13.07;45.68;101154.30;217647;1283;139204;-89
2023/05/12 22:15:32;;;;;;;9.50;3.90;;;;;;;13.00;46.03;101154.98;217954;1282;137899;-89
2023/05/12 22:20:32;;;;;;;11.50;4.40;;;;;;;12.92;45.96;101148.39;217503;1286;138686;-91
2023/05/12 22:25:33;;;;;;;8.60;3.70;;;;;;;12.87;46.13;101149.03;218047;1286;138051;-88
2023/05/12 22:30:33;;;;;;;8.90;4.60;;;;;;;12.81;46.20;101149.59;217454;1282;138796;-88
2023/05/12 22:35:33;;;;;;;12.10;4.00;;;;;;;12.75;46.59;101154.63;218045;1283;137863;-90
2023/05/12 22:40:34;;;;;;;9.50;4.30;;;;;;;12.69;46.55;101156.20;217421;1282;138617;-88
2023/05/12 22:45:35;;;;;;;9.10;4.90;;;;;;;12.62;46.82;101155.54;218083;1283;137843;-89
2023/05/12 22:50:35;;;;;;;10.00;4.60;;;;;;;12.55;47.14;101157.65;217602;1283;138481;-91